createdAt,value
2023-03-19T00:02:50.965Z,96131.19
2023-03-19T00:05:40.157Z,96131.31
2023-03-19T00:08:29.457Z,96120.66
2023-03-19T00:11:20.481Z,96128.88
2023-03-19T00:14:09.108Z,96129.69
2023-03-19T00:16:58.600Z,96130.50
2023-03-19T00:19:47.258Z,96125.09
2023-03-19T00:22:37.309Z,96125.91
2023-03-19T00:25:27.082Z,96135.09
2023-03-19T00:28:17.718Z,96121.81
2023-03-19T00:31:11.618Z,96119.50
2023-03-19T00:34:01.390Z,96109.66
2023-03-19T00:36:51.543Z,96114.16
2023-03-19T00:39:40.240Z,96116.59
2023-03-19T00:42:30.172Z,96123.06
2023-03-19T00:45:20.556Z,96127.91
2023-03-19T00:48:10.029Z,96115.22
2023-03-19T00:51:03.443Z,96120.88
2023-03-19T00:53:55.090Z,96116.84
2023-03-19T00:56:43.681Z,96128.41
2023-03-19T00:59:33.139Z,96116.78
2023-03-19T01:02:23.633Z,96091.53
2023-03-19T01:05:13.594Z,96120.28
2023-03-19T01:08:02.560Z,96118.06
2023-03-19T01:10:52.630Z,96117.72
2023-03-19T01:13:42.404Z,96129.34
2023-03-19T01:16:31.999Z,96125.59
2023-03-19T01:19:22.493Z,96128.44
2023-03-19T01:22:12.554Z,96128.06
2023-03-19T01:25:04.208Z,96118.00
2023-03-19T01:27:53.868Z,96119.63
2023-03-19T01:30:43.041Z,96125.28
2023-03-19T01:33:54.112Z,96123.97
2023-03-19T01:37:04.366Z,96115.97
2023-03-19T01:39:55.383Z,96120.06
2023-03-19T01:42:57.630Z,96115.41
2023-03-19T01:46:09.546Z,96129.38
2023-03-19T01:49:20.683Z,96125.16
2023-03-19T01:52:17.692Z,96128.56
2023-03-19T01:55:32.364Z,96130.72
2023-03-19T01:58:31.696Z,96120.16
2023-03-19T02:01:39.378Z,96128.94
2023-03-19T02:04:31.310Z,96123.91
2023-03-19T02:07:22.343Z,96121.91
2023-03-19T02:10:15.939Z,96116.19
2023-03-19T02:13:05.291Z,96118.56
2023-03-19T02:15:54.720Z,96116.69
2023-03-19T02:18:44.182Z,96130.50
2023-03-19T02:21:33.201Z,96129.81
2023-03-19T02:24:30.486Z,96127.69
2023-03-19T02:27:27.458Z,96127.00
2023-03-19T02:30:22.395Z,96135.59
2023-03-19T02:33:14.360Z,96106.38
2023-03-19T02:36:03.851Z,96122.28
2023-03-19T02:38:55.106Z,96109.16
2023-03-19T02:41:44.082Z,96134.75
2023-03-19T02:44:35.342Z,96134.88
2023-03-19T02:47:24.726Z,96147.78
2023-03-19T02:50:15.195Z,96153.41
2023-03-19T02:53:04.513Z,96144.97
2023-03-19T02:55:53.999Z,96149.91
2023-03-19T02:58:42.596Z,96131.25
2023-03-19T03:01:34.029Z,96147.44
2023-03-19T03:04:22.674Z,96149.06
2023-03-19T03:07:13.211Z,96163.06
2023-03-19T03:10:01.851Z,96168.22
2023-03-19T03:12:52.022Z,96152.38
2023-03-19T03:15:41.828Z,96148.59
2023-03-19T03:18:32.706Z,96147.66
2023-03-19T03:21:23.242Z,96143.34
2023-03-19T03:24:12.646Z,96158.34
2023-03-19T03:27:02.607Z,96152.59
2023-03-19T03:29:51.388Z,96157.06
2023-03-19T03:32:41.840Z,96156.38
2023-03-19T03:35:32.485Z,96152.38
2023-03-19T03:38:23.819Z,96157.19
2023-03-19T03:41:12.971Z,96158.69
2023-03-19T03:44:02.238Z,96165.97
2023-03-19T03:46:55.361Z,96167.84
2023-03-19T03:49:44.012Z,96166.06
2023-03-19T03:52:36.247Z,96163.03
2023-03-19T03:55:24.846Z,96159.00
2023-03-19T03:58:15.252Z,96160.88
2023-03-19T04:01:04.435Z,96162.09
2023-03-19T04:03:54.334Z,96166.91
2023-03-19T04:06:44.828Z,96169.47
2023-03-19T04:09:55.242Z,96179.53
2023-03-19T04:12:46.292Z,96171.91
2023-03-19T04:15:35.288Z,96173.91
2023-03-19T04:18:26.366Z,96176.25
2023-03-19T04:21:15.713Z,96180.44
2023-03-19T04:24:07.127Z,96159.66
2023-03-19T04:26:57.210Z,96176.75
2023-03-19T04:29:47.399Z,96170.97
2023-03-19T04:32:39.179Z,96174.78
2023-03-19T04:35:29.487Z,96182.25
2023-03-19T04:38:18.585Z,96182.41
2023-03-19T04:41:07.296Z,96176.75
2023-03-19T04:44:01.559Z,96178.38
2023-03-19T04:46:51.698Z,96176.38
2023-03-19T04:49:43.571Z,96168.03
2023-03-19T04:52:33.418Z,96189.75
2023-03-19T04:55:23.589Z,96199.63
2023-03-19T04:58:28.155Z,96208.78
2023-03-19T05:01:23.272Z,96214.63
2023-03-19T05:04:29.438Z,96213.53
2023-03-19T05:07:23.314Z,96220.13
2023-03-19T05:10:13.908Z,96220.47
2023-03-19T05:13:02.548Z,96208.41
2023-03-19T05:15:55.004Z,96215.66
2023-03-19T05:18:45.602Z,96222.50
2023-03-19T05:21:35.149Z,96225.31
2023-03-19T05:24:24.691Z,96225.56
2023-03-19T05:27:14.409Z,96219.34
2023-03-19T05:30:11.412Z,96228.09
2023-03-19T05:33:00.732Z,96236.00
2023-03-19T05:35:58.666Z,96234.34
2023-03-19T05:38:56.107Z,96235.16
2023-03-19T05:41:53.943Z,96231.75
2023-03-19T05:44:49.302Z,96233.41
2023-03-19T05:47:42.629Z,96238.22
2023-03-19T05:50:31.903Z,96239.75
2023-03-19T05:53:41.153Z,96243.69
2023-03-19T05:56:49.151Z,96245.34
2023-03-19T06:00:06.587Z,96240.03
2023-03-19T06:02:56.157Z,96259.38
2023-03-19T06:06:17.418Z,96241.69
2023-03-19T06:09:08.997Z,96260.63
2023-03-19T06:12:01.759Z,96265.13
2023-03-19T06:15:22.821Z,96266.09
2023-03-19T06:18:11.441Z,96272.91
2023-03-19T06:21:01.297Z,96277.16
2023-03-19T06:23:51.076Z,96281.28
2023-03-19T06:26:45.049Z,96280.66
2023-03-19T06:29:36.805Z,96283.84
2023-03-19T06:32:38.802Z,96278.47
2023-03-19T06:35:32.637Z,96294.22
2023-03-19T06:38:21.278Z,96301.38
2023-03-19T06:41:10.038Z,96305.25
2023-03-19T06:44:00.535Z,96310.22
2023-03-19T06:46:50.354Z,96312.69
2023-03-19T06:49:38.997Z,96315.63
2023-03-19T06:52:29.302Z,96317.69
2023-03-19T06:55:18.334Z,96313.16
2023-03-19T06:58:07.647Z,96316.78
2023-03-19T07:00:58.100Z,96320.09
2023-03-19T07:03:47.599Z,96318.59
2023-03-19T07:06:36.305Z,96338.84
2023-03-19T07:09:27.296Z,96360.56
2023-03-19T07:12:16.838Z,96370.78
2023-03-19T07:15:06.644Z,96371.16
2023-03-19T07:17:57.350Z,96366.47
2023-03-19T07:20:47.576Z,96355.31
2023-03-19T07:23:36.442Z,96367.28
2023-03-19T07:26:26.948Z,96368.84
2023-03-19T07:29:16.176Z,96360.63
2023-03-19T07:32:05.139Z,96353.69
2023-03-19T07:34:55.611Z,96364.28
2023-03-19T07:37:44.239Z,96362.84
2023-03-19T07:40:34.336Z,96364.38
2023-03-19T07:43:23.101Z,96382.00
2023-03-19T07:46:13.177Z,96389.31
2023-03-19T07:49:02.236Z,96388.59
2023-03-19T07:51:52.821Z,96393.88
2023-03-19T07:54:41.458Z,96387.91
2023-03-19T07:57:30.924Z,96397.06
2023-03-19T08:00:20.743Z,96399.31
2023-03-19T08:03:09.954Z,96395.19
2023-03-19T08:05:59.218Z,96403.19
2023-03-19T08:08:49.253Z,96412.47
2023-03-19T08:11:38.326Z,96411.34
2023-03-19T08:14:27.462Z,96412.97
2023-03-19T08:17:17.591Z,96416.34
2023-03-19T08:20:08.271Z,96425.72
2023-03-19T08:22:57.775Z,96421.06
2023-03-19T08:25:47.785Z,96424.19
2023-03-19T08:28:37.440Z,96425.13
2023-03-19T08:31:26.114Z,96429.91
2023-03-19T08:34:15.364Z,96427.84
2023-03-19T08:37:04.069Z,96427.19
2023-03-19T08:39:54.577Z,96419.25
2023-03-19T08:42:45.483Z,96420.66
2023-03-19T08:45:35.085Z,96418.38
2023-03-19T08:48:23.818Z,96429.94
2023-03-19T08:51:13.808Z,96431.25
2023-03-19T08:54:02.387Z,96427.22
2023-03-19T08:56:51.494Z,96427.06
2023-03-19T08:59:41.519Z,96427.19
2023-03-19T09:02:30.652Z,96423.56
2023-03-19T09:05:22.322Z,96423.59
2023-03-19T09:08:12.730Z,96432.25
2023-03-19T09:11:01.813Z,96427.13
2023-03-19T09:13:51.451Z,96432.38
2023-03-19T09:16:41.963Z,96439.00
2023-03-19T09:19:30.669Z,96445.69
2023-03-19T09:22:20.105Z,96453.44
2023-03-19T09:25:09.596Z,96445.72
2023-03-19T09:27:58.239Z,96451.41
2023-03-19T09:30:48.348Z,96451.28
2023-03-19T09:33:39.155Z,96449.66
2023-03-19T09:36:27.736Z,96448.09
2023-03-19T09:39:17.227Z,96460.13
2023-03-19T09:42:16.902Z,96459.59
2023-03-19T09:45:13.888Z,96463.94
2023-03-19T09:48:07.831Z,96458.00
2023-03-19T09:50:58.794Z,96456.44
2023-03-19T09:53:55.714Z,96459.84
2023-03-19T09:56:45.094Z,96460.25
2023-03-19T09:59:33.836Z,96478.94
2023-03-19T10:02:41.805Z,96471.63
2023-03-19T10:05:43.468Z,96472.53
2023-03-19T10:08:48.232Z,96467.19
2023-03-19T10:11:53.128Z,96474.31
2023-03-19T10:15:04.685Z,96475.44
2023-03-19T10:18:00.547Z,96468.50
2023-03-19T10:20:56.712Z,96468.53
2023-03-19T10:23:50.253Z,96464.16
2023-03-19T10:26:39.113Z,96470.97
2023-03-19T10:29:29.041Z,96484.56
2023-03-19T10:32:21.016Z,96475.94
2023-03-19T10:35:20.372Z,96420.34
2023-03-19T10:38:21.116Z,96475.63
2023-03-19T10:41:25.729Z,96468.78
2023-03-19T10:44:26.107Z,96478.31
2023-03-19T10:47:16.576Z,96471.72
2023-03-19T10:50:07.382Z,96470.69
2023-03-19T10:53:06.800Z,96474.50
2023-03-19T10:55:57.731Z,96467.66
2023-03-19T10:58:59.863Z,96469.41
2023-03-19T11:01:49.173Z,96468.97
2023-03-19T11:04:38.919Z,96479.41
2023-03-19T11:07:28.960Z,96469.41
2023-03-19T11:10:21.536Z,96467.00
2023-03-19T11:13:24.679Z,96477.63
2023-03-19T11:16:14.695Z,96476.53
2023-03-19T11:19:03.731Z,96467.88
2023-03-19T11:22:11.397Z,96472.25
2023-03-19T11:25:02.409Z,96468.16
2023-03-19T11:28:01.589Z,96460.06
2023-03-19T11:30:57.644Z,96459.78
2023-03-19T11:34:08.095Z,96467.94
2023-03-19T11:37:09.177Z,96464.31
2023-03-19T11:40:06.758Z,96461.00
2023-03-19T11:43:07.768Z,96446.16
2023-03-19T11:46:04.507Z,96458.31
2023-03-19T11:49:25.364Z,96444.28
2023-03-19T11:52:20.209Z,96454.00
2023-03-19T11:55:22.217Z,96436.31
2023-03-19T11:58:42.174Z,96457.47
2023-03-19T12:01:50.394Z,96450.41
2023-03-19T12:05:06.845Z,96450.84
2023-03-19T12:08:07.349Z,96433.38
2023-03-19T12:11:08.065Z,96441.06
2023-03-19T12:14:15.167Z,96446.22
2023-03-19T12:17:26.025Z,96444.34
2023-03-19T12:20:28.221Z,96443.56
2023-03-19T12:23:28.580Z,96432.97
2023-03-19T12:26:25.842Z,96445.78
2023-03-19T12:29:22.634Z,96446.06
2023-03-19T12:32:23.222Z,96437.72
2023-03-19T12:35:16.407Z,96434.59
2023-03-19T12:38:13.358Z,96429.44
2023-03-19T12:41:08.208Z,96444.03
2023-03-19T12:44:01.928Z,96433.97
2023-03-19T12:46:58.611Z,96426.19
2023-03-19T12:49:52.755Z,96432.84
2023-03-19T12:52:43.102Z,96420.56
2023-03-19T12:55:41.976Z,96421.63
2023-03-19T12:58:43.758Z,96416.88
2023-03-19T13:01:37.012Z,96409.16
2023-03-19T13:04:31.085Z,96404.75
2023-03-19T13:07:24.214Z,96402.06
2023-03-19T13:10:18.724Z,96401.47
2023-03-19T13:13:27.486Z,96399.19
2023-03-19T13:16:31.149Z,96399.53
2023-03-19T13:19:26.991Z,96391.44
2023-03-19T13:22:19.642Z,96394.78
2023-03-19T13:25:17.825Z,96402.16
2023-03-19T13:28:11.902Z,96408.97
2023-03-19T13:31:02.968Z,96393.63
2023-03-19T13:33:55.961Z,96388.06
2023-03-19T13:36:48.141Z,96390.13
2023-03-19T13:39:37.893Z,96392.06
2023-03-19T13:42:42.675Z,96383.25
2023-03-19T13:45:37.312Z,96381.66
2023-03-19T13:48:40.347Z,96385.97
2023-03-19T13:51:30.836Z,96389.47
2023-03-19T13:54:23.477Z,96383.81
2023-03-19T13:57:23.066Z,96383.16
2023-03-19T14:00:57.451Z,96388.75
2023-03-19T14:03:56.462Z,96377.19
2023-03-19T14:06:47.800Z,96369.25
2023-03-19T14:09:42.274Z,96376.56
2023-03-19T14:12:34.488Z,96375.00
2023-03-19T14:15:25.629Z,96370.78
2023-03-19T14:18:20.106Z,96374.13
2023-03-19T14:21:13.210Z,96358.09
2023-03-19T14:24:55.239Z,96375.34
2023-03-19T14:27:38.425Z,96373.25
2023-03-19T14:30:33.195Z,96374.44
2023-03-19T14:33:30.155Z,96372.31
2023-03-19T14:36:21.999Z,96372.28
2023-03-19T14:39:21.954Z,96369.88
2023-03-19T14:42:19.636Z,96377.31
2023-03-19T14:45:37.803Z,96359.03
2023-03-19T14:48:52.722Z,96355.75
2023-03-19T14:51:54.511Z,96360.34
2023-03-19T14:54:49.568Z,96361.69
2023-03-19T14:57:38.224Z,96356.50
2023-03-19T15:00:28.166Z,96359.25
2023-03-19T15:03:22.854Z,96354.84
2023-03-19T15:06:16.534Z,96352.63
2023-03-19T15:09:09.722Z,96348.53
2023-03-19T15:12:28.513Z,96352.91
2023-03-19T15:15:26.360Z,96346.84
2023-03-19T15:18:16.703Z,96349.28
2023-03-19T15:21:06.811Z,96354.44
2023-03-19T15:23:56.946Z,96356.72
2023-03-19T15:26:47.770Z,96354.56
2023-03-19T15:29:38.028Z,96347.06
2023-03-19T15:32:52.247Z,96347.56
2023-03-19T15:35:44.725Z,96344.09
2023-03-19T15:38:36.760Z,96349.34
2023-03-19T15:41:32.539Z,96348.00
2023-03-19T15:44:27.236Z,96348.53
2023-03-19T15:47:21.650Z,96343.03
2023-03-19T15:50:16.230Z,96353.03
2023-03-19T15:53:10.125Z,96344.00
2023-03-19T15:55:59.452Z,96343.44
2023-03-19T15:58:53.380Z,96352.03
2023-03-19T16:01:42.202Z,96355.25
2023-03-19T16:04:45.634Z,96348.41
2023-03-19T16:07:44.028Z,96344.84
2023-03-19T16:10:35.728Z,96346.28
2023-03-19T16:13:29.210Z,96344.19
2023-03-19T16:16:22.502Z,96352.41
2023-03-19T16:19:30.954Z,96354.91
2023-03-19T16:22:24.205Z,96354.16
2023-03-19T16:25:18.741Z,96359.25
2023-03-19T16:28:16.492Z,96346.38
2023-03-19T16:31:05.382Z,96362.31
2023-03-19T16:33:57.566Z,96363.00
2023-03-19T16:36:47.406Z,96346.19
2023-03-19T16:39:38.125Z,96364.84
2023-03-19T16:42:38.099Z,96356.47
2023-03-19T16:45:29.100Z,96364.44
2023-03-19T16:48:18.207Z,96368.53
2023-03-19T16:51:14.515Z,96378.16
2023-03-19T16:54:06.025Z,96380.59
2023-03-19T16:56:55.308Z,96377.13
2023-03-19T16:59:45.253Z,96380.50
2023-03-19T17:02:33.889Z,96374.78
2023-03-19T17:05:23.002Z,96363.09
2023-03-19T17:08:13.567Z,96379.75
2023-03-19T17:11:03.160Z,96390.72
2023-03-19T17:13:52.608Z,96387.97
2023-03-19T17:16:47.261Z,96395.38
2023-03-19T17:19:37.005Z,96397.28
2023-03-19T17:22:28.264Z,96397.00
2023-03-19T17:25:19.455Z,96399.44
2023-03-19T17:28:08.249Z,96396.41
2023-03-19T17:30:57.450Z,96402.13
2023-03-19T17:33:47.766Z,96398.00
2023-03-19T17:36:37.014Z,96403.72
2023-03-19T17:39:27.960Z,96406.94
2023-03-19T17:42:23.459Z,96408.25
2023-03-19T17:45:14.422Z,96402.72
2023-03-19T17:48:03.828Z,96401.84
2023-03-19T17:50:52.885Z,96419.56
2023-03-19T17:53:42.342Z,96415.97
2023-03-19T17:56:31.617Z,96415.16
2023-03-19T17:59:22.911Z,96418.88
2023-03-19T18:02:23.846Z,96417.97
2023-03-19T18:05:18.388Z,96430.41
2023-03-19T18:08:07.921Z,96432.88
2023-03-19T18:10:56.506Z,96423.56
2023-03-19T18:13:46.707Z,96433.41
2023-03-19T18:16:36.966Z,96429.88
2023-03-19T18:19:32.296Z,96434.94
2023-03-19T18:22:21.652Z,96428.06
2023-03-19T18:25:17.494Z,96428.34
2023-03-19T18:28:08.358Z,96423.13
2023-03-19T18:30:59.771Z,96425.44
2023-03-19T18:33:52.502Z,96427.81
2023-03-19T18:36:42.115Z,96431.84
2023-03-19T18:39:31.903Z,96427.97
2023-03-19T18:42:20.658Z,96428.50
2023-03-19T18:45:12.380Z,96434.13
2023-03-19T18:48:01.408Z,96427.00
2023-03-19T18:50:53.445Z,96426.13
2023-03-19T18:53:42.377Z,96431.56
2023-03-19T18:56:33.898Z,96438.91
2023-03-19T18:59:26.693Z,96443.44
2023-03-19T19:02:27.268Z,96435.22
2023-03-19T19:05:17.721Z,96440.59
2023-03-19T19:08:16.014Z,96440.22
2023-03-19T19:11:07.182Z,96449.47
2023-03-19T19:13:58.500Z,96450.22
2023-03-19T19:16:47.476Z,96456.66
2023-03-19T19:19:37.543Z,96458.19
2023-03-19T19:22:27.839Z,96455.94
2023-03-19T19:25:20.053Z,96463.28
2023-03-19T19:28:15.895Z,96465.44
2023-03-19T19:31:05.667Z,96469.22
2023-03-19T19:33:55.407Z,96463.47
2023-03-19T19:36:44.562Z,96460.75
2023-03-19T19:39:33.161Z,96467.25
2023-03-19T19:42:24.583Z,96459.53
2023-03-19T19:45:33.284Z,96465.31
2023-03-19T19:48:26.171Z,96469.34
2023-03-19T19:51:20.038Z,96479.63
2023-03-19T19:54:09.195Z,96471.41
2023-03-19T19:56:57.854Z,96484.34
2023-03-19T19:59:49.074Z,96482.81
2023-03-19T20:02:37.705Z,96482.69
2023-03-19T20:05:29.704Z,96488.53
2023-03-19T20:08:19.174Z,96494.16
2023-03-19T20:11:16.536Z,96498.94
2023-03-19T20:14:05.153Z,96500.56
2023-03-19T20:16:58.553Z,96504.06
2023-03-19T20:19:47.255Z,96494.50
2023-03-19T20:22:37.389Z,96505.59
2023-03-19T20:25:28.812Z,96505.03
2023-03-19T20:28:22.949Z,96504.38
2023-03-19T20:31:18.722Z,96518.19
2023-03-19T20:34:13.554Z,96516.22
2023-03-19T20:37:02.195Z,96533.81
2023-03-19T20:39:52.547Z,96533.25
2023-03-19T20:42:42.286Z,96531.69
2023-03-19T20:45:35.841Z,96537.50
2023-03-19T20:48:25.733Z,96538.06
2023-03-19T20:51:19.693Z,96535.66
2023-03-19T20:54:09.109Z,96533.69
2023-03-19T20:56:58.237Z,96538.16
2023-03-19T20:59:49.046Z,96543.34
2023-03-19T21:02:38.309Z,96546.56
2023-03-19T21:05:35.201Z,96552.94
2023-03-19T21:08:32.838Z,96554.75
2023-03-19T21:11:23.353Z,96559.97
2023-03-19T21:14:16.545Z,96551.38
2023-03-19T21:17:05.439Z,96558.38
2023-03-19T21:19:55.077Z,96557.00
2023-03-19T21:22:44.016Z,96559.31
2023-03-19T21:25:35.793Z,96564.16
2023-03-19T21:28:27.605Z,96559.91
2023-03-19T21:31:17.974Z,96558.47
2023-03-19T21:34:07.318Z,96561.94
2023-03-19T21:36:56.336Z,96557.19
2023-03-19T21:39:46.250Z,96555.91
2023-03-19T21:42:38.533Z,96562.16
2023-03-19T21:45:29.840Z,96557.06
2023-03-19T21:48:30.587Z,96559.31
2023-03-19T21:51:19.807Z,96562.00
2023-03-19T21:54:08.390Z,96566.00
2023-03-19T21:56:57.162Z,96551.78
2023-03-19T21:59:48.056Z,96558.38
2023-03-19T22:02:41.625Z,96557.66
2023-03-19T22:05:30.688Z,96562.84
2023-03-19T22:08:20.470Z,96558.56
2023-03-19T22:11:17.466Z,96560.13
2023-03-19T22:14:09.402Z,96558.22
2023-03-19T22:16:59.543Z,96550.91
2023-03-19T22:19:48.202Z,96536.69
2023-03-19T22:22:37.559Z,96537.75
2023-03-19T22:25:31.158Z,96545.13
2023-03-19T22:28:27.760Z,96536.69
2023-03-19T22:31:16.530Z,96550.13
2023-03-19T22:34:07.971Z,96547.09
2023-03-19T22:36:56.664Z,96553.91
2023-03-19T22:39:46.158Z,96561.94
2023-03-19T22:42:34.825Z,96559.03
2023-03-19T22:45:27.993Z,96558.47
2023-03-19T22:48:18.220Z,96561.19
2023-03-19T22:51:08.941Z,96561.25
2023-03-19T22:53:57.982Z,96567.38
2023-03-19T22:56:47.102Z,96556.19
2023-03-19T22:59:35.784Z,96552.31
2023-03-19T23:02:25.354Z,96549.59
2023-03-19T23:05:24.962Z,96551.88
2023-03-19T23:08:19.187Z,96553.88
2023-03-19T23:11:08.613Z,96551.16
2023-03-19T23:14:00.044Z,96555.28
2023-03-19T23:16:49.786Z,96561.50
2023-03-19T23:19:39.419Z,96571.78
2023-03-19T23:22:29.202Z,96576.53
2023-03-19T23:25:21.492Z,96575.94
2023-03-19T23:28:19.971Z,96578.97
2023-03-19T23:31:10.848Z,96578.50
2023-03-19T23:33:59.612Z,96578.66
2023-03-19T23:36:50.071Z,96579.34
2023-03-19T23:39:39.570Z,96588.88
2023-03-19T23:42:33.062Z,96585.72
2023-03-19T23:45:31.378Z,96595.94
2023-03-19T23:48:23.065Z,96589.13
2023-03-19T23:51:14.940Z,96593.97
2023-03-19T23:54:03.567Z,96593.41
2023-03-19T23:56:54.016Z,96597.75
2023-03-19T23:59:46.314Z,96604.25
